createdAt,value
2022-08-25T00:02:56.874Z,91.63
2022-08-25T00:06:00.756Z,91.79
2022-08-25T00:09:05.726Z,91.83
2022-08-25T00:12:08.168Z,92.06
2022-08-25T00:15:11.312Z,91.97
2022-08-25T00:18:19.812Z,92.17
2022-08-25T00:21:23.053Z,92.28
2022-08-25T00:24:25.984Z,92.10
2022-08-25T00:27:28.298Z,92.34
2022-08-25T00:30:30.529Z,92.16
2022-08-25T00:33:32.969Z,92.36
2022-08-25T00:36:35.819Z,91.92
2022-08-25T00:39:39.419Z,92.14
2022-08-25T00:42:42.174Z,92.25
2022-08-25T00:45:44.321Z,92.52
2022-08-25T00:48:51.180Z,92.42
2022-08-25T00:52:07.891Z,92.36
2022-08-25T00:55:21.997Z,92.37
2022-08-25T00:58:27.273Z,92.71
2022-08-25T01:02:08.261Z,92.57
2022-08-25T01:05:12.921Z,92.53
2022-08-25T01:08:16.995Z,92.68
2022-08-25T01:11:19.053Z,92.71
2022-08-25T01:14:25.714Z,92.66
2022-08-25T01:17:45.152Z,92.85
2022-08-25T01:20:53.514Z,92.76
2022-08-25T01:23:58.488Z,92.75
2022-08-25T01:27:01.573Z,92.62
2022-08-25T01:30:05.557Z,92.72
2022-08-25T01:33:09.930Z,92.74
2022-08-25T01:36:12.108Z,93.09
2022-08-25T01:39:15.617Z,93.35
2022-08-25T01:42:34.568Z,93.38
2022-08-25T01:45:38.542Z,93.48
2022-08-25T01:48:40.860Z,93.60
2022-08-25T01:51:48.303Z,93.49
2022-08-25T01:54:50.577Z,93.62
2022-08-25T01:57:53.372Z,93.54
2022-08-25T02:00:58.642Z,93.34
2022-08-25T02:04:01.124Z,93.35
2022-08-25T02:07:08.125Z,93.31
2022-08-25T02:10:14.028Z,93.27
2022-08-25T02:13:16.350Z,93.28
2022-08-25T02:16:25.009Z,93.55
2022-08-25T02:19:27.307Z,93.69
2022-08-25T02:22:29.538Z,93.69
2022-08-25T02:25:33.021Z,93.75
2022-08-25T02:28:35.238Z,93.76
2022-08-25T02:31:37.788Z,93.73
2022-08-25T02:34:41.769Z,93.72
2022-08-25T02:37:44.104Z,93.66
2022-08-25T02:40:46.100Z,93.78
2022-08-25T02:43:49.139Z,93.78
2022-08-25T02:46:51.181Z,93.79
2022-08-25T02:49:53.284Z,93.78
2022-08-25T02:52:55.593Z,93.97
2022-08-25T02:55:57.788Z,93.79
2022-08-25T02:59:00.679Z,93.80
2022-08-25T03:02:03.719Z,93.60
2022-08-25T03:05:07.559Z,93.56
2022-08-25T03:08:09.778Z,93.66
2022-08-25T03:11:12.515Z,93.46
2022-08-25T03:14:14.903Z,93.60
2022-08-25T03:17:16.976Z,93.41
2022-08-25T03:20:19.733Z,93.59
2022-08-25T03:23:21.775Z,93.49
2022-08-25T03:26:43.001Z,93.46
2022-08-25T03:29:45.752Z,93.77
2022-08-25T03:32:48.214Z,94.27
2022-08-25T03:35:50.302Z,94.54
2022-08-25T03:38:53.163Z,95.15
2022-08-25T03:41:55.462Z,95.46
2022-08-25T03:44:57.567Z,95.84
2022-08-25T03:47:59.755Z,96.19
2022-08-25T03:51:01.946Z,96.43
2022-08-25T03:54:05.081Z,96.67
2022-08-25T03:57:07.155Z,96.73
2022-08-25T04:00:12.122Z,96.64
2022-08-25T04:03:14.253Z,96.88
2022-08-25T04:06:17.916Z,96.84
2022-08-25T04:09:20.073Z,97.21
2022-08-25T04:12:22.489Z,96.97
2022-08-25T04:15:28.498Z,97.01
2022-08-25T04:18:32.327Z,96.93
2022-08-25T04:21:35.284Z,96.88
2022-08-25T04:24:37.292Z,96.73
2022-08-25T04:27:39.424Z,96.46
2022-08-25T04:30:43.843Z,96.23
2022-08-25T04:33:48.274Z,96.23
2022-08-25T04:36:52.654Z,96.01
2022-08-25T04:39:54.910Z,95.77
2022-08-25T04:42:56.985Z,95.58
2022-08-25T04:46:00.224Z,95.54
2022-08-25T04:49:03.663Z,95.73
2022-08-25T04:52:05.808Z,95.26
2022-08-25T04:55:15.188Z,95.34
2022-08-25T04:58:17.521Z,95.30
2022-08-25T05:01:23.611Z,95.30
2022-08-25T05:04:25.719Z,95.78
2022-08-25T05:07:30.812Z,95.95
2022-08-25T05:10:34.008Z,95.63
2022-08-25T05:13:36.816Z,95.81
2022-08-25T05:16:40.262Z,95.92
2022-08-25T05:19:43.006Z,95.76
2022-08-25T05:22:46.834Z,95.73
2022-08-25T05:25:49.300Z,95.59
2022-08-25T05:28:52.921Z,95.27
2022-08-25T05:31:54.946Z,95.16
2022-08-25T05:34:56.987Z,94.92
2022-08-25T05:37:59.489Z,94.44
2022-08-25T05:41:07.368Z,94.00
2022-08-25T05:44:09.924Z,93.84
2022-08-25T05:47:11.964Z,93.71
2022-08-25T05:50:13.969Z,93.35
2022-08-25T05:53:16.068Z,93.15
2022-08-25T05:56:18.807Z,93.33
2022-08-25T05:59:20.910Z,93.14
2022-08-25T06:02:41.564Z,92.89
2022-08-25T06:05:44.324Z,92.96
2022-08-25T06:08:46.416Z,92.92
2022-08-25T06:11:54.035Z,92.94
2022-08-25T06:14:57.105Z,93.02
2022-08-25T06:18:01.929Z,92.76
2022-08-25T06:21:14.339Z,92.58
2022-08-25T06:24:16.307Z,92.48
2022-08-25T06:27:18.949Z,92.52
2022-08-25T06:30:27.190Z,92.68
2022-08-25T06:33:31.034Z,92.57
2022-08-25T06:36:33.873Z,91.94
2022-08-25T06:39:36.114Z,91.87
2022-08-25T06:42:38.522Z,91.89
2022-08-25T06:45:44.249Z,91.04
2022-08-25T06:48:46.299Z,90.59
2022-08-25T06:51:48.464Z,90.47
2022-08-25T06:54:51.029Z,90.29
2022-08-25T06:58:03.832Z,90.10
2022-08-25T07:01:19.841Z,90.04
2022-08-25T07:04:22.556Z,90.15
2022-08-25T07:07:24.603Z,90.17
2022-08-25T07:10:26.718Z,89.78
2022-08-25T07:13:28.784Z,89.14
2022-08-25T07:16:32.961Z,89.18
2022-08-25T07:19:37.094Z,89.08
2022-08-25T07:22:40.449Z,88.32
2022-08-25T07:25:42.563Z,87.79
2022-08-25T07:28:47.437Z,87.44
2022-08-25T07:31:50.146Z,87.58
2022-08-25T07:35:11.389Z,86.99
2022-08-25T07:38:20.692Z,86.64
2022-08-25T07:41:23.123Z,86.84
2022-08-25T07:44:28.160Z,87.15
2022-08-25T07:47:30.247Z,87.55
2022-08-25T07:50:33.401Z,87.68
2022-08-25T07:53:35.474Z,87.67
2022-08-25T07:56:41.604Z,87.60
2022-08-25T07:59:44.212Z,87.62
2022-08-25T08:02:48.904Z,87.36
2022-08-25T08:05:52.173Z,87.26
2022-08-25T08:08:59.006Z,86.27
2022-08-25T08:12:01.210Z,86.08
2022-08-25T08:15:04.891Z,84.85
2022-08-25T08:18:12.889Z,84.23
2022-08-25T08:21:36.087Z,83.46
2022-08-25T08:24:44.793Z,83.99
2022-08-25T08:27:57.301Z,83.64
2022-08-25T08:30:59.840Z,83.98
2022-08-25T08:34:03.895Z,82.20
2022-08-25T08:37:05.949Z,81.45
2022-08-25T08:40:16.617Z,81.06
2022-08-25T08:43:20.315Z,81.45
2022-08-25T08:46:25.997Z,79.53
2022-08-25T08:49:41.073Z,78.71
2022-08-25T08:53:13.530Z,76.48
2022-08-25T08:56:23.102Z,76.85
2022-08-25T08:59:39.476Z,77.20
2022-08-25T09:02:52.934Z,77.71
2022-08-25T09:05:59.111Z,79.03
2022-08-25T09:09:06.801Z,78.88
2022-08-25T09:12:28.238Z,77.84
2022-08-25T09:15:54.667Z,74.76
2022-08-25T09:19:12.637Z,72.63
2022-08-25T09:22:47.926Z,72.37
2022-08-25T09:26:13.201Z,72.43
2022-08-25T09:29:23.517Z,71.81
2022-08-25T09:32:32.923Z,70.33
2022-08-25T09:35:39.683Z,67.83
2022-08-25T09:38:42.334Z,65.79
2022-08-25T09:41:56.617Z,65.02
2022-08-25T09:45:00.402Z,64.98
2022-08-25T09:48:03.836Z,65.27
2022-08-25T09:51:38.055Z,63.70
2022-08-25T09:54:46.985Z,61.29
2022-08-25T09:57:56.965Z,60.57
2022-08-25T10:01:16.865Z,58.02
2022-08-25T10:04:37.621Z,57.33
2022-08-25T10:07:51.930Z,56.14
2022-08-25T10:10:57.652Z,54.57
2022-08-25T10:14:16.521Z,55.66
2022-08-25T10:17:27.697Z,54.17
2022-08-25T10:20:35.082Z,55.64
2022-08-25T10:23:46.933Z,55.79
2022-08-25T10:26:58.992Z,56.55
2022-08-25T10:30:00.963Z,55.61
2022-08-25T10:33:15.983Z,54.24
2022-08-25T10:36:29.275Z,53.08
2022-08-25T10:39:40.479Z,53.10
2022-08-25T10:42:57.805Z,53.60
2022-08-25T10:46:30.109Z,55.86
2022-08-25T10:49:56.355Z,53.71
2022-08-25T10:53:21.142Z,53.28
2022-08-25T10:56:29.510Z,53.21
2022-08-25T11:00:03.796Z,49.61
2022-08-25T11:03:44.842Z,52.49
2022-08-25T11:06:57.215Z,53.62
2022-08-25T11:10:07.058Z,54.06
2022-08-25T11:13:37.147Z,54.25
2022-08-25T11:16:39.273Z,52.55
2022-08-25T11:19:48.343Z,51.72
2022-08-25T11:23:23.867Z,51.16
2022-08-25T11:26:36.813Z,52.59
2022-08-25T11:29:42.157Z,54.40
2022-08-25T11:32:52.277Z,55.61
2022-08-25T11:35:58.776Z,55.72
2022-08-25T11:39:12.903Z,55.10
2022-08-25T11:42:34.327Z,54.52
2022-08-25T11:45:54.119Z,51.83
2022-08-25T11:49:38.233Z,48.23
2022-08-25T11:52:47.090Z,47.35
2022-08-25T11:55:56.155Z,47.38
2022-08-25T11:58:58.689Z,48.80
2022-08-25T12:02:01.931Z,51.03
2022-08-25T12:05:27.812Z,51.13
2022-08-25T12:09:05.085Z,55.10
2022-08-25T12:12:30.464Z,55.06
2022-08-25T12:15:42.149Z,54.56
2022-08-25T12:18:46.627Z,51.24
2022-08-25T12:21:55.142Z,46.31
2022-08-25T12:25:22.061Z,45.89
2022-08-25T12:28:34.927Z,45.62
2022-08-25T12:32:04.580Z,48.15
2022-08-25T12:35:13.998Z,47.50
2022-08-25T12:38:27.358Z,47.87
2022-08-25T12:41:33.770Z,45.66
2022-08-25T12:44:47.787Z,46.27
2022-08-25T12:47:53.898Z,44.95
2022-08-25T12:50:59.606Z,46.30
2022-08-25T12:54:15.871Z,47.29
2022-08-25T12:57:33.015Z,45.73
2022-08-25T13:01:07.699Z,47.98
2022-08-25T13:04:26.933Z,48.71
2022-08-25T13:08:02.815Z,47.65
2022-08-25T13:11:14.243Z,48.02
2022-08-25T13:14:27.033Z,49.30
2022-08-25T13:17:36.018Z,50.35
2022-08-25T13:20:44.147Z,49.38
2022-08-25T13:23:49.700Z,47.25
2022-08-25T13:26:55.723Z,45.01
2022-08-25T13:30:03.817Z,41.67
2022-08-25T13:33:17.628Z,36.28
2022-08-25T13:36:47.475Z,34.75
2022-08-25T13:40:24.780Z,33.45
2022-08-25T13:43:28.600Z,31.55
2022-08-25T13:46:35.385Z,29.46
2022-08-25T13:49:40.496Z,28.31
2022-08-25T13:52:46.932Z,26.56
2022-08-25T13:55:54.919Z,26.22
2022-08-25T13:59:04.269Z,27.04
2022-08-25T14:02:09.308Z,27.21
2022-08-25T14:05:36.049Z,29.41
2022-08-25T14:08:42.409Z,30.04
2022-08-25T14:11:51.427Z,28.09
2022-08-25T14:15:02.940Z,31.58
2022-08-25T14:18:16.024Z,35.46
2022-08-25T14:21:20.691Z,37.33
2022-08-25T14:24:24.373Z,38.50
2022-08-25T14:27:26.578Z,40.80
2022-08-25T14:30:29.518Z,34.85
2022-08-25T14:33:41.701Z,35.31
2022-08-25T14:36:45.051Z,39.28
2022-08-25T14:39:47.243Z,42.36
2022-08-25T14:42:50.491Z,39.69
2022-08-25T14:45:53.245Z,38.58
2022-08-25T14:48:59.708Z,33.39
2022-08-25T14:52:13.462Z,30.17
2022-08-25T14:55:27.685Z,29.49
2022-08-25T14:58:34.384Z,26.76
2022-08-25T15:01:42.802Z,25.72
2022-08-25T15:04:55.905Z,24.57
2022-08-25T15:08:16.430Z,24.69
2022-08-25T15:11:18.691Z,24.55
2022-08-25T15:14:28.449Z,24.86
2022-08-25T15:17:31.220Z,24.00
2022-08-25T15:20:33.848Z,24.01
2022-08-25T15:23:35.940Z,24.23
2022-08-25T15:26:44.773Z,23.74
2022-08-25T15:29:48.445Z,23.47
2022-08-25T15:32:52.451Z,24.46
2022-08-25T15:35:59.918Z,25.65
2022-08-25T15:39:04.217Z,32.65
2022-08-25T15:42:07.322Z,38.43
2022-08-25T15:45:10.803Z,41.71
2022-08-25T15:48:13.244Z,44.97
2022-08-25T15:51:17.966Z,47.47
2022-08-25T15:54:20.986Z,48.71
2022-08-25T15:57:24.623Z,49.98
2022-08-25T16:00:26.838Z,52.08
2022-08-25T16:03:31.616Z,54.02
2022-08-25T16:06:34.390Z,54.83
2022-08-25T16:09:37.051Z,55.62
2022-08-25T16:12:40.259Z,56.29
2022-08-25T16:15:53.085Z,57.31
2022-08-25T16:18:57.318Z,58.35
2022-08-25T16:21:59.908Z,59.43
2022-08-25T16:25:02.700Z,59.97
2022-08-25T16:28:05.602Z,61.12
2022-08-25T16:31:10.245Z,62.70
2022-08-25T16:34:13.249Z,62.97
2022-08-25T16:37:15.477Z,63.49
2022-08-25T16:40:19.286Z,64.18
2022-08-25T16:43:23.835Z,64.67
2022-08-25T16:46:26.198Z,64.61
2022-08-25T16:49:28.630Z,65.03
2022-08-25T16:52:52.884Z,66.19
2022-08-25T16:56:02.516Z,66.75
2022-08-25T16:59:06.422Z,67.36
2022-08-25T17:02:08.886Z,68.09
2022-08-25T17:05:11.895Z,68.50
2022-08-25T17:08:30.529Z,68.80
2022-08-25T17:11:36.263Z,69.71
2022-08-25T17:14:38.437Z,70.26
2022-08-25T17:17:40.493Z,71.26
2022-08-25T17:20:45.427Z,72.09
2022-08-25T17:23:47.908Z,72.82
2022-08-25T17:26:54.039Z,73.19
2022-08-25T17:29:56.115Z,73.23
2022-08-25T17:32:58.694Z,73.43
2022-08-25T17:36:00.783Z,73.64
2022-08-25T17:39:03.687Z,74.03
2022-08-25T17:42:06.594Z,74.22
2022-08-25T17:45:09.267Z,74.81
2022-08-25T17:48:13.106Z,75.71
2022-08-25T17:51:16.018Z,75.78
2022-08-25T17:54:18.843Z,76.25
2022-08-25T17:57:21.206Z,76.40
2022-08-25T18:00:24.252Z,76.71
2022-08-25T18:03:27.248Z,76.97
2022-08-25T18:06:31.226Z,76.98
2022-08-25T18:09:33.498Z,77.44
2022-08-25T18:12:37.643Z,77.63
2022-08-25T18:15:42.356Z,77.92
2022-08-25T18:18:45.046Z,78.26
2022-08-25T18:21:47.082Z,78.61
2022-08-25T18:24:49.383Z,78.88
2022-08-25T18:27:56.800Z,79.46
2022-08-25T18:31:00.449Z,79.46
2022-08-25T18:34:03.476Z,79.36
2022-08-25T18:37:24.293Z,79.64
2022-08-25T18:40:27.378Z,79.81
2022-08-25T18:43:35.259Z,80.18
2022-08-25T18:46:39.606Z,80.49
2022-08-25T18:49:41.743Z,80.47
2022-08-25T18:52:44.811Z,80.69
2022-08-25T18:55:48.314Z,80.94
2022-08-25T18:58:52.665Z,81.17
2022-08-25T19:01:57.493Z,81.64
2022-08-25T19:05:04.723Z,82.00
2022-08-25T19:08:12.897Z,82.21
2022-08-25T19:11:17.137Z,82.76
2022-08-25T19:14:26.464Z,83.22
2022-08-25T19:17:31.028Z,83.94
2022-08-25T19:20:42.440Z,84.10
2022-08-25T19:23:44.846Z,84.13
2022-08-25T19:26:48.819Z,84.13
2022-08-25T19:29:53.475Z,84.44
2022-08-25T19:32:56.441Z,84.35
2022-08-25T19:36:01.623Z,84.49
2022-08-25T19:39:06.456Z,84.84
2022-08-25T19:42:34.893Z,85.05
2022-08-25T19:45:32.337Z,85.34
2022-08-25T19:48:34.491Z,85.65
2022-08-25T19:51:44.290Z,86.20
2022-08-25T19:54:46.569Z,86.36
2022-08-25T19:57:48.703Z,86.47
2022-08-25T20:00:54.268Z,86.49
2022-08-25T20:03:58.240Z,86.61
2022-08-25T20:07:01.261Z,86.48
2022-08-25T20:10:08.880Z,86.27
2022-08-25T20:13:16.668Z,86.59
2022-08-25T20:16:19.065Z,86.66
2022-08-25T20:19:21.696Z,86.94
2022-08-25T20:22:26.970Z,87.01
2022-08-25T20:25:36.192Z,87.09
2022-08-25T20:28:42.028Z,87.28
2022-08-25T20:31:44.594Z,87.42
2022-08-25T20:34:50.180Z,87.54
2022-08-25T20:37:52.996Z,87.21
2022-08-25T20:40:55.460Z,87.57
2022-08-25T20:43:57.774Z,87.80
2022-08-25T20:47:02.370Z,88.26
2022-08-25T20:50:06.929Z,88.16
2022-08-25T20:53:10.298Z,88.19
2022-08-25T20:56:18.747Z,88.14
2022-08-25T20:59:23.394Z,88.25
2022-08-25T21:02:26.797Z,88.26
2022-08-25T21:05:28.996Z,88.24
2022-08-25T21:08:31.234Z,88.33
2022-08-25T21:11:33.403Z,88.14
2022-08-25T21:14:39.526Z,88.25
2022-08-25T21:17:41.707Z,88.40
2022-08-25T21:20:44.649Z,88.69
2022-08-25T21:23:48.806Z,88.99
2022-08-25T21:26:53.293Z,88.94
2022-08-25T21:29:55.774Z,88.85
2022-08-25T21:32:58.231Z,89.19
2022-08-25T21:36:00.305Z,89.28
2022-08-25T21:39:07.674Z,89.31
2022-08-25T21:45:16.804Z,89.41
2022-08-25T21:48:23.155Z,89.47
2022-08-25T21:51:31.737Z,89.82
2022-08-25T21:54:33.909Z,89.97
2022-08-25T21:57:36.601Z,89.91
2022-08-25T22:00:38.821Z,89.93
2022-08-25T22:03:42.621Z,89.68
2022-08-25T22:06:49.356Z,89.71
2022-08-25T22:09:51.526Z,89.89
2022-08-25T22:12:54.702Z,90.17
2022-08-25T22:15:56.768Z,90.17
2022-08-25T22:18:59.731Z,90.48
2022-08-25T22:22:03.784Z,90.94
2022-08-25T22:25:06.154Z,90.94
2022-08-25T22:28:14.957Z,90.93
2022-08-25T22:31:20.581Z,91.32
2022-08-25T22:34:30.217Z,91.24
2022-08-25T22:37:34.997Z,91.25
2022-08-25T22:40:39.213Z,91.21
2022-08-25T22:43:42.175Z,91.16
2022-08-25T22:46:45.256Z,91.04
2022-08-25T22:49:47.358Z,91.17
2022-08-25T22:52:50.177Z,91.17
2022-08-25T22:55:52.939Z,91.37
2022-08-25T22:59:07.399Z,91.48
2022-08-25T23:02:09.469Z,91.31
2022-08-25T23:05:14.333Z,91.46
2022-08-25T23:08:16.606Z,91.16
2022-08-25T23:11:33.269Z,91.36
2022-08-25T23:14:38.093Z,91.23
2022-08-25T23:17:44.406Z,91.85
2022-08-25T23:21:05.810Z,91.92
2022-08-25T23:24:10.808Z,91.93
2022-08-25T23:27:17.677Z,91.61
2022-08-25T23:30:20.464Z,91.77
2022-08-25T23:33:24.208Z,91.73
2022-08-25T23:36:26.468Z,91.83
2022-08-25T23:39:28.813Z,91.70
2022-08-25T23:42:33.350Z,91.69
2022-08-25T23:45:35.468Z,91.98
2022-08-25T23:48:38.098Z,92.08
2022-08-25T23:51:41.218Z,92.17
2022-08-25T23:54:45.339Z,92.19
2022-08-25T23:57:51.554Z,92.31
